createdAt,value
2018-04-14T00:00:42.650Z,95.30
2018-04-14T00:03:10.113Z,95.30
2018-04-14T00:05:37.626Z,94.90
2018-04-14T00:08:06.601Z,94.70
2018-04-14T00:10:34.071Z,94.70
2018-04-14T00:13:01.635Z,95.20
2018-04-14T00:15:29.117Z,94.90
2018-04-14T00:17:57.358Z,95.00
2018-04-14T00:20:24.828Z,95.00
2018-04-14T00:22:52.286Z,95.30
2018-04-14T00:25:19.760Z,95.30
2018-04-14T00:27:47.994Z,95.10
2018-04-14T00:30:15.464Z,95.00
2018-04-14T00:32:42.924Z,95.30
2018-04-14T00:35:10.383Z,95.40
2018-04-14T00:37:37.837Z,95.50
2018-04-14T00:40:05.394Z,95.40
2018-04-14T00:42:32.869Z,95.70
2018-04-14T00:45:00.322Z,95.60
2018-04-14T00:47:28.600Z,96.00
2018-04-14T00:49:56.834Z,96.00
2018-04-14T00:52:24.286Z,95.70
2018-04-14T00:54:51.760Z,95.80
2018-04-14T00:57:19.218Z,95.90
2018-04-14T00:59:46.683Z,95.90
2018-04-14T01:02:14.148Z,96.10
2018-04-14T01:04:41.614Z,96.30
2018-04-14T01:07:09.868Z,97.10
2018-04-14T01:09:37.343Z,96.70
2018-04-14T01:12:04.804Z,96.40
2018-04-14T01:14:33.048Z,96.80
2018-04-14T01:17:00.519Z,96.80
2018-04-14T01:19:27.987Z,96.60
2018-04-14T01:21:56.218Z,96.70
2018-04-14T01:24:23.703Z,96.70
2018-04-14T01:26:51.232Z,96.50
2018-04-14T01:29:18.723Z,96.60
2018-04-14T01:31:46.191Z,96.70
2018-04-14T01:34:13.767Z,96.80
2018-04-14T01:36:42.002Z,96.30
2018-04-14T01:39:09.532Z,96.20
2018-04-14T01:41:36.999Z,96.30
2018-04-14T01:44:04.458Z,96.70
2018-04-14T01:46:31.944Z,96.80
2018-04-14T01:48:59.403Z,96.80
2018-04-14T01:51:26.963Z,96.70
2018-04-14T01:53:54.973Z,96.50
2018-04-14T01:56:22.499Z,96.80
2018-04-14T01:58:50.768Z,97.10
2018-04-14T02:01:18.322Z,96.90
2018-04-14T02:03:45.785Z,96.80
2018-04-14T02:06:13.335Z,96.90
2018-04-14T02:08:40.808Z,96.80
2018-04-14T02:11:08.279Z,96.90
2018-04-14T02:13:36.516Z,96.70
2018-04-14T02:16:03.982Z,96.70
2018-04-14T02:18:31.547Z,96.90
2018-04-14T02:20:59.007Z,97.20
2018-04-14T02:23:26.507Z,96.90
2018-04-14T02:25:53.967Z,97.00
2018-04-14T02:28:21.467Z,97.10
2018-04-14T02:30:48.922Z,96.80
2018-04-14T02:33:16.408Z,97.00
2018-04-14T02:35:44.639Z,97.10
2018-04-14T02:38:12.200Z,97.00
2018-04-14T02:40:39.654Z,97.00
2018-04-14T02:43:07.459Z,96.80
2018-04-14T02:45:35.695Z,96.80
2018-04-14T02:48:03.174Z,96.70
2018-04-14T02:50:30.731Z,96.80
2018-04-14T02:52:58.296Z,97.10
2018-04-14T02:55:25.873Z,97.00
2018-04-14T02:57:54.114Z,97.00
2018-04-14T03:00:21.575Z,97.00
2018-04-14T03:02:49.047Z,97.10
2018-04-14T03:05:16.787Z,97.20
2018-04-14T03:07:44.251Z,96.70
2018-04-14T03:10:11.735Z,96.80
2018-04-14T03:12:39.969Z,97.30
2018-04-14T03:15:07.444Z,97.30
2018-04-14T03:17:34.923Z,97.40
2018-04-14T03:20:03.169Z,97.30
2018-04-14T03:22:30.664Z,97.30
2018-04-14T03:24:58.137Z,97.40
2018-04-14T03:27:25.595Z,97.60
2018-04-14T03:29:53.063Z,97.50
2018-04-14T03:32:20.535Z,97.60
2018-04-14T03:34:48.019Z,97.70
2018-04-14T03:37:15.492Z,97.70
2018-04-14T03:39:43.824Z,98.50
2018-04-14T03:42:11.308Z,98.50
2018-04-14T03:44:38.790Z,98.50
2018-04-14T03:47:07.102Z,98.60
2018-04-14T03:49:34.583Z,98.50
2018-04-14T03:52:02.054Z,98.50
2018-04-14T03:54:30.305Z,98.30
2018-04-14T03:56:57.782Z,98.30
2018-04-14T03:59:25.261Z,98.50
2018-04-14T04:01:53.502Z,98.90
2018-04-14T04:04:20.987Z,99.20
2018-04-14T04:06:48.471Z,99.10
2018-04-14T04:09:15.934Z,99.20
2018-04-14T04:11:43.443Z,99.30
2018-04-14T04:14:10.915Z,99.10
2018-04-14T04:16:39.173Z,99.20
2018-04-14T04:19:18.655Z,99.10
2018-04-14T04:21:58.230Z,99.20
2018-04-14T04:24:37.670Z,99.20
2018-04-14T04:27:05.252Z,99.20
2018-04-14T04:29:32.871Z,99.20
2018-04-14T04:32:00.339Z,99.40
2018-04-14T04:34:27.833Z,99.60
2018-04-14T04:36:55.308Z,99.70
2018-04-14T04:39:23.563Z,99.80
2018-04-14T04:41:51.034Z,99.80
2018-04-14T04:44:19.290Z,99.90
2018-04-14T04:46:46.860Z,99.80
2018-04-14T04:49:15.091Z,99.90
2018-04-14T04:51:42.591Z,99.80
2018-04-14T04:54:10.139Z,99.70
2018-04-14T04:56:38.379Z,99.80
2018-04-14T04:59:05.850Z,99.80
2018-04-14T05:01:33.444Z,99.90
2018-04-14T05:04:00.915Z,99.70
2018-04-14T05:06:29.161Z,99.70
2018-04-14T05:08:56.722Z,99.70
2018-04-14T05:11:24.283Z,99.70
2018-04-14T05:13:51.842Z,99.60
2018-04-14T05:16:19.402Z,99.70
2018-04-14T05:18:46.871Z,99.80
2018-04-14T05:21:15.123Z,99.90
2018-04-14T05:23:42.696Z,99.80
2018-04-14T05:26:10.168Z,99.60
2018-04-14T05:28:38.404Z,99.60
2018-04-14T05:31:05.875Z,99.60
2018-04-14T05:33:34.881Z,99.50
2018-04-14T05:36:03.123Z,99.70
2018-04-14T05:38:30.623Z,99.40
2018-04-14T05:40:58.852Z,99.60
2018-04-14T05:43:26.330Z,99.60
2018-04-14T05:45:53.851Z,99.60
2018-04-14T05:48:21.380Z,99.80
2018-04-14T05:50:49.651Z,99.90
2018-04-14T05:53:17.913Z,99.80
2018-04-14T05:55:45.394Z,99.70
2018-04-14T05:58:12.930Z,99.90
2018-04-14T06:00:40.474Z,99.70
2018-04-14T06:03:07.954Z,99.70
2018-04-14T06:05:36.204Z,99.80
2018-04-14T06:08:03.808Z,99.70
2018-04-14T06:10:31.336Z,99.90
2018-04-14T06:12:58.811Z,99.90
2018-04-14T06:15:27.066Z,99.80
2018-04-14T06:17:54.619Z,99.70
2018-04-14T06:20:22.095Z,99.70
2018-04-14T06:22:50.350Z,99.90
2018-04-14T06:25:18.542Z,99.90
2018-04-14T06:27:46.786Z,99.90
2018-04-14T06:30:14.258Z,99.90
2018-04-14T06:32:41.887Z,99.90
2018-04-14T06:35:09.604Z,99.90
2018-04-14T06:37:37.850Z,99.80
2018-04-14T06:40:05.323Z,99.80
2018-04-14T06:42:33.615Z,99.90
2018-04-14T06:45:01.859Z,99.90
2018-04-14T06:47:29.343Z,99.90
2018-04-14T06:49:57.653Z,99.90
2018-04-14T06:52:25.284Z,99.90
2018-04-14T06:54:52.796Z,99.90
2018-04-14T06:57:20.271Z,99.90
2018-04-14T06:59:47.757Z,99.80
2018-04-14T07:02:15.227Z,99.80
2018-04-14T07:04:42.854Z,99.70
2018-04-14T07:07:10.368Z,99.80
2018-04-14T07:09:37.807Z,99.90
2018-04-14T07:12:05.282Z,99.90
2018-04-14T07:14:32.760Z,99.90
2018-04-14T07:17:00.295Z,99.60
2018-04-14T07:19:27.766Z,99.90
2018-04-14T07:21:55.239Z,99.80
2018-04-14T07:24:22.820Z,99.60
2018-04-14T07:26:51.048Z,99.40
2018-04-14T07:29:18.527Z,99.40
2018-04-14T07:31:46.003Z,99.40
2018-04-14T07:34:14.241Z,99.30
2018-04-14T07:36:41.725Z,99.20
2018-04-14T07:39:09.198Z,98.80
2018-04-14T07:41:37.452Z,98.80
2018-04-14T07:44:04.918Z,98.70
2018-04-14T07:46:32.396Z,98.60
2018-04-14T07:49:00.651Z,98.30
2018-04-14T07:51:28.928Z,98.10
2018-04-14T07:53:56.389Z,98.00
2018-04-14T07:56:23.934Z,98.00
2018-04-14T07:58:51.409Z,97.70
2018-04-14T08:01:18.964Z,97.50
2018-04-14T08:03:46.439Z,97.90
2018-04-14T08:06:14.686Z,97.50
2018-04-14T08:08:42.159Z,97.50
2018-04-14T08:11:09.703Z,97.80
2018-04-14T08:13:37.275Z,97.80
2018-04-14T08:16:05.508Z,98.00
2018-04-14T08:18:32.977Z,97.60
2018-04-14T08:21:00.459Z,97.40
2018-04-14T08:23:28.706Z,97.30
2018-04-14T08:25:56.202Z,97.20
2018-04-14T08:28:24.439Z,97.70
2018-04-14T08:30:51.918Z,97.60
2018-04-14T08:33:19.389Z,97.20
2018-04-14T08:35:47.705Z,96.70
2018-04-14T08:38:15.174Z,96.70
2018-04-14T08:40:42.682Z,96.80
2018-04-14T08:43:10.952Z,95.80
2018-04-14T08:45:38.430Z,95.80
2018-04-14T08:48:05.954Z,95.90
2018-04-14T08:50:33.414Z,95.80
2018-04-14T08:53:00.970Z,94.90
2018-04-14T08:55:28.557Z,94.90
2018-04-14T08:57:56.033Z,94.60
2018-04-14T09:00:23.604Z,95.00
2018-04-14T09:02:51.091Z,94.80
2018-04-14T09:05:18.581Z,95.20
2018-04-14T09:07:46.827Z,95.60
2018-04-14T09:10:14.310Z,95.60
2018-04-14T09:12:42.560Z,95.50
2018-04-14T09:15:13.912Z,95.40
2018-04-14T09:17:41.491Z,95.30
2018-04-14T09:20:09.775Z,94.90
2018-04-14T09:22:38.038Z,94.90
2018-04-14T09:25:06.278Z,95.10
2018-04-14T09:27:33.757Z,95.00
2018-04-14T09:30:01.248Z,94.90
2018-04-14T09:32:28.791Z,94.10
2018-04-14T09:34:57.025Z,94.00
2018-04-14T09:37:24.494Z,93.90
2018-04-14T09:39:52.063Z,92.70
2018-04-14T09:42:19.555Z,92.90
2018-04-14T09:44:47.084Z,92.80
2018-04-14T09:47:15.407Z,90.50
2018-04-14T09:49:43.621Z,92.10
2018-04-14T09:52:11.098Z,92.10
2018-04-14T09:54:39.346Z,91.10
2018-04-14T09:57:06.915Z,91.10
2018-04-14T09:59:34.480Z,90.30
2018-04-14T10:02:01.951Z,88.10
2018-04-14T10:04:30.202Z,90.20
2018-04-14T10:06:58.578Z,90.20
2018-04-14T10:09:26.069Z,89.60
2018-04-14T10:11:54.301Z,90.00
2018-04-14T10:14:22.489Z,89.90
2018-04-14T10:16:50.051Z,88.90
2018-04-14T10:19:17.609Z,88.10
2018-04-14T10:21:45.080Z,87.90
2018-04-14T10:24:13.335Z,86.70
2018-04-14T10:26:40.948Z,86.50
2018-04-14T10:29:08.415Z,86.40
2018-04-14T10:31:35.884Z,85.30
2018-04-14T10:34:03.360Z,84.00
2018-04-14T10:36:30.832Z,84.60
2018-04-14T10:38:58.386Z,81.40
2018-04-14T10:41:25.943Z,82.40
2018-04-14T10:43:53.424Z,80.40
2018-04-14T10:46:21.648Z,82.20
2018-04-14T10:48:49.115Z,82.10
2018-04-14T10:51:16.582Z,83.00
2018-04-14T10:53:44.046Z,84.00
2018-04-14T10:56:11.517Z,83.60
2018-04-14T10:58:38.992Z,81.30
2018-04-14T11:01:07.239Z,82.40
2018-04-14T11:03:34.799Z,82.30
2018-04-14T11:06:02.264Z,80.80
2018-04-14T11:08:30.501Z,80.80
2018-04-14T11:10:57.970Z,80.60
2018-04-14T11:13:25.426Z,79.10
2018-04-14T11:15:52.899Z,79.00
2018-04-14T11:18:20.355Z,78.20
2018-04-14T11:20:47.818Z,78.20
2018-04-14T11:23:15.275Z,77.90
2018-04-14T11:25:42.826Z,78.20
2018-04-14T11:28:11.105Z,80.00
2018-04-14T11:30:40.097Z,80.90
2018-04-14T11:33:07.559Z,80.80
2018-04-14T11:35:36.531Z,82.30
2018-04-14T11:38:04.011Z,81.40
2018-04-14T11:40:31.482Z,80.00
2018-04-14T11:42:59.739Z,78.80
2018-04-14T11:45:27.294Z,78.70
2018-04-14T11:47:55.516Z,80.30
2018-04-14T11:50:22.985Z,80.30
2018-04-14T11:52:50.448Z,79.70
2018-04-14T11:55:18.248Z,80.70
2018-04-14T11:57:46.530Z,82.50
2018-04-14T12:00:14.088Z,82.30
2018-04-14T12:02:41.538Z,82.40
2018-04-14T12:05:10.636Z,83.30
2018-04-14T12:07:39.606Z,85.90
2018-04-14T12:10:07.067Z,85.90
2018-04-14T12:12:34.546Z,90.40
2018-04-14T12:15:02.006Z,90.70
2018-04-14T12:17:30.287Z,92.10
2018-04-14T12:19:58.515Z,92.80
2018-04-14T12:22:26.007Z,92.70
2018-04-14T12:24:53.478Z,93.60
2018-04-14T12:27:21.737Z,94.50
2018-04-14T12:29:49.203Z,94.50
2018-04-14T12:32:17.489Z,95.30
2018-04-14T12:34:44.924Z,95.30
2018-04-14T12:37:12.494Z,95.50
2018-04-14T12:39:40.736Z,95.30
2018-04-14T12:42:08.211Z,95.30
2018-04-14T12:44:35.895Z,95.30
2018-04-14T12:47:04.256Z,95.30
2018-04-14T12:49:31.719Z,95.30
2018-04-14T12:52:00.089Z,95.90
2018-04-14T12:54:27.551Z,95.90
2018-04-14T12:56:55.807Z,96.30
2018-04-14T12:59:23.290Z,96.20
2018-04-14T13:01:51.547Z,96.20
2018-04-14T13:04:19.104Z,96.10
2018-04-14T13:06:46.668Z,96.20
2018-04-14T13:09:14.135Z,96.10
2018-04-14T13:11:42.375Z,96.40
2018-04-14T13:14:09.852Z,95.90
2018-04-14T13:16:37.339Z,95.50
2018-04-14T13:19:04.869Z,95.80
2018-04-14T13:21:32.280Z,95.90
2018-04-14T13:23:59.752Z,96.00
2018-04-14T13:26:27.350Z,95.40
2018-04-14T13:28:54.812Z,96.00
2018-04-14T13:31:23.038Z,94.80
2018-04-14T13:33:50.528Z,95.00
2018-04-14T13:36:18.758Z,92.60
2018-04-14T13:38:46.259Z,92.60
2018-04-14T13:41:13.724Z,92.90
2018-04-14T13:43:41.187Z,91.90
2018-04-14T13:46:09.415Z,91.60
2018-04-14T13:48:36.887Z,91.20
2018-04-14T13:51:04.352Z,91.60
2018-04-14T13:53:31.916Z,90.90
2018-04-14T13:55:59.480Z,91.70
2018-04-14T13:58:27.711Z,90.70
2018-04-14T14:00:55.182Z,90.70
2018-04-14T14:03:22.650Z,90.70
2018-04-14T14:05:50.182Z,85.70
2018-04-14T14:08:17.655Z,86.10
2018-04-14T14:10:45.115Z,87.50
2018-04-14T14:13:12.604Z,86.70
2018-04-14T14:15:40.155Z,85.60
2018-04-14T14:18:07.614Z,86.70
2018-04-14T14:20:35.176Z,84.60
2018-04-14T14:23:02.649Z,85.20
2018-04-14T14:25:30.907Z,83.60
2018-04-14T14:27:58.465Z,83.50
2018-04-14T14:30:25.923Z,82.90
2018-04-14T14:32:53.477Z,82.50
2018-04-14T14:35:21.039Z,82.00
2018-04-14T14:37:48.511Z,81.50
2018-04-14T14:40:16.749Z,79.50
2018-04-14T14:42:44.245Z,79.40
2018-04-14T14:45:11.683Z,80.30
2018-04-14T14:47:39.239Z,81.60
2018-04-14T14:50:12.312Z,79.80
2018-04-14T14:52:39.895Z,82.30
2018-04-14T14:55:07.487Z,81.10
2018-04-14T14:57:34.972Z,81.30
2018-04-14T15:00:02.430Z,81.10
2018-04-14T15:02:29.899Z,82.10
2018-04-14T15:04:57.386Z,79.80
2018-04-14T15:07:25.664Z,77.50
2018-04-14T15:09:53.128Z,77.50
2018-04-14T15:12:21.366Z,77.20
2018-04-14T15:14:48.843Z,77.00
2018-04-14T15:17:16.320Z,75.60
2018-04-14T15:19:44.634Z,75.90
2018-04-14T15:22:12.094Z,75.60
2018-04-14T15:24:39.740Z,75.30
2018-04-14T15:27:07.210Z,75.00
2018-04-14T15:29:34.839Z,76.50
2018-04-14T15:32:03.079Z,74.30
2018-04-14T15:34:30.643Z,74.20
2018-04-14T15:36:58.119Z,73.90
2018-04-14T15:39:26.466Z,72.30
2018-04-14T15:41:53.951Z,72.10
2018-04-14T15:44:22.212Z,72.90
2018-04-14T15:46:49.764Z,72.70
2018-04-14T15:49:17.277Z,72.90
2018-04-14T15:51:44.801Z,73.50
2018-04-14T15:54:13.034Z,75.10
2018-04-14T15:56:40.499Z,75.00
2018-04-14T15:59:07.972Z,75.70
2018-04-14T16:01:35.530Z,75.30
2018-04-14T16:04:09.658Z,75.20
2018-04-14T16:06:30.576Z,75.00
2018-04-14T16:08:58.829Z,73.50
2018-04-14T16:11:26.307Z,73.40
2018-04-14T16:13:54.532Z,73.90
2018-04-14T16:16:22.112Z,72.90
2018-04-14T16:18:49.588Z,73.20
2018-04-14T16:21:17.823Z,68.30
2018-04-14T16:23:45.291Z,68.30
2018-04-14T16:26:12.762Z,69.90
2018-04-14T16:28:40.323Z,68.80
2018-04-14T16:31:07.791Z,67.70
2018-04-14T16:33:36.015Z,68.70
2018-04-14T16:36:03.495Z,68.60
2018-04-14T16:38:31.770Z,67.60
2018-04-14T16:40:59.331Z,67.40
2018-04-14T16:43:26.890Z,67.60
2018-04-14T16:45:54.381Z,67.10
2018-04-14T16:48:21.846Z,67.40
2018-04-14T16:50:49.333Z,66.10
2018-04-14T16:53:16.796Z,65.90
2018-04-14T16:55:44.269Z,67.10
2018-04-14T16:58:11.735Z,66.90
2018-04-14T17:00:39.201Z,66.90
2018-04-14T17:03:06.760Z,67.30
2018-04-14T17:05:34.263Z,66.90
2018-04-14T17:08:01.731Z,64.90
2018-04-14T17:10:29.192Z,65.30
2018-04-14T17:12:56.654Z,63.10
2018-04-14T17:15:24.115Z,64.50
2018-04-14T17:17:51.691Z,65.10
2018-04-14T17:20:19.153Z,66.00
2018-04-14T17:22:46.630Z,65.30
2018-04-14T17:25:14.913Z,67.40
2018-04-14T17:27:43.139Z,68.10
2018-04-14T17:30:10.615Z,68.00
2018-04-14T17:32:38.133Z,70.10
2018-04-14T17:35:05.551Z,70.90
2018-04-14T17:37:33.816Z,73.80
2018-04-14T17:40:01.366Z,73.80
2018-04-14T17:42:28.834Z,74.70
2018-04-14T17:44:57.062Z,76.00
2018-04-14T17:47:24.556Z,76.50
2018-04-14T17:49:52.800Z,77.40
2018-04-14T17:52:20.275Z,77.40
2018-04-14T17:54:47.754Z,79.00
2018-04-14T17:57:15.991Z,78.80
2018-04-14T17:59:43.458Z,78.70
2018-04-14T18:02:10.950Z,80.10
2018-04-14T18:04:39.202Z,81.90
2018-04-14T18:07:08.206Z,82.50
2018-04-14T18:09:36.505Z,83.70
2018-04-14T18:12:04.062Z,83.60
2018-04-14T18:14:32.295Z,84.60
2018-04-14T18:16:59.755Z,84.50
2018-04-14T18:19:27.243Z,85.30
2018-04-14T18:21:55.488Z,86.60
2018-04-14T18:24:22.978Z,86.50
2018-04-14T18:26:51.222Z,86.20
2018-04-14T18:29:18.687Z,86.20
2018-04-14T18:31:46.164Z,85.80
2018-04-14T18:34:14.418Z,86.40
2018-04-14T18:36:42.699Z,85.90
2018-04-14T18:39:11.746Z,85.10
2018-04-14T18:41:39.212Z,85.10
2018-04-14T18:44:06.695Z,85.70
2018-04-14T18:46:34.150Z,86.90
2018-04-14T18:49:01.714Z,88.40
2018-04-14T18:51:29.179Z,87.90
2018-04-14T18:53:56.659Z,87.80
2018-04-14T18:56:24.886Z,88.00
2018-04-14T18:58:52.463Z,87.90
2018-04-14T19:01:20.016Z,88.00
2018-04-14T19:03:47.575Z,87.90
2018-04-14T19:06:15.135Z,87.90
2018-04-14T19:08:42.590Z,87.80
2018-04-14T19:11:10.184Z,87.90
2018-04-14T19:13:38.447Z,88.80
2018-04-14T19:16:06.692Z,88.60
2018-04-14T19:18:34.250Z,88.50
2018-04-14T19:21:02.292Z,89.60
2018-04-14T19:23:29.855Z,90.20
2018-04-14T19:25:57.407Z,90.30
2018-04-14T19:28:24.863Z,90.70
2018-04-14T19:30:52.369Z,90.40
2018-04-14T19:33:19.835Z,90.40
2018-04-14T19:35:47.394Z,90.50
2018-04-14T19:38:15.648Z,90.80
2018-04-14T19:40:43.115Z,90.40
2018-04-14T19:43:10.574Z,90.50
2018-04-14T19:45:38.042Z,90.60
2018-04-14T19:48:06.297Z,90.90
2018-04-14T19:50:33.797Z,90.90
2018-04-14T19:53:01.290Z,91.00
2018-04-14T19:55:28.782Z,91.20
2018-04-14T19:57:56.243Z,91.30
2018-04-14T20:00:24.495Z,91.10
2018-04-14T20:02:51.970Z,91.00
2018-04-14T20:05:19.439Z,91.10
2018-04-14T20:07:47.696Z,91.40
2018-04-14T20:10:15.171Z,91.30
2018-04-14T20:12:43.411Z,91.80
2018-04-14T20:15:10.874Z,91.80
2018-04-14T20:17:38.345Z,91.70
2018-04-14T20:20:05.831Z,91.90
2018-04-14T20:22:33.311Z,92.00
2018-04-14T20:25:00.789Z,92.10
2018-04-14T20:27:28.273Z,92.30
2018-04-14T20:29:55.824Z,92.00
2018-04-14T20:32:23.306Z,92.30
2018-04-14T20:34:51.548Z,92.40
2018-04-14T20:37:19.023Z,92.30
2018-04-14T20:39:46.482Z,92.30
2018-04-14T20:42:13.960Z,92.60
2018-04-14T20:44:42.195Z,92.50
2018-04-14T20:47:09.679Z,92.40
2018-04-14T20:49:37.925Z,92.60
2018-04-14T20:52:05.422Z,92.50
2018-04-14T20:54:33.655Z,92.70
2018-04-14T20:57:01.136Z,92.70
2018-04-14T20:59:29.053Z,92.80
2018-04-14T21:01:56.659Z,93.20
2018-04-14T21:04:24.130Z,93.30
2018-04-14T21:06:52.376Z,93.10
2018-04-14T21:09:19.852Z,93.10
2018-04-14T21:11:47.315Z,93.20
2018-04-14T21:14:15.555Z,93.30
2018-04-14T21:16:43.019Z,93.30
2018-04-14T21:19:10.507Z,93.10
2018-04-14T21:21:38.824Z,93.20
2018-04-14T21:24:06.313Z,93.10
2018-04-14T21:26:33.780Z,93.20
2018-04-14T21:29:01.259Z,93.40
2018-04-14T21:31:29.506Z,93.50
2018-04-14T21:33:57.001Z,93.40
2018-04-14T21:36:24.580Z,93.60
2018-04-14T21:38:52.079Z,93.70
2018-04-14T21:41:19.567Z,93.70
2018-04-14T21:43:47.872Z,93.50
2018-04-14T21:46:15.385Z,93.50
2018-04-14T21:48:43.622Z,93.60
2018-04-14T21:51:11.192Z,93.60
2018-04-14T21:53:38.782Z,93.90
2018-04-14T21:56:07.054Z,94.10
2018-04-14T21:58:35.319Z,94.10
2018-04-14T22:01:02.784Z,94.10
2018-04-14T22:03:30.243Z,94.00
2018-04-14T22:05:57.753Z,94.00
2018-04-14T22:08:25.233Z,93.80
2018-04-14T22:10:52.811Z,94.00
2018-04-14T22:13:20.286Z,94.20
2018-04-14T22:15:48.579Z,94.10
2018-04-14T22:18:16.047Z,94.00
2018-04-14T22:20:43.510Z,94.20
2018-04-14T22:23:11.010Z,94.30
2018-04-14T22:25:38.476Z,94.50
2018-04-14T22:28:06.030Z,94.60
2018-04-14T22:30:33.581Z,94.50
2018-04-14T22:33:01.052Z,94.60
2018-04-14T22:35:28.526Z,94.70
2018-04-14T22:37:56.776Z,94.80
2018-04-14T22:40:24.244Z,94.80
2018-04-14T22:42:52.493Z,94.70
2018-04-14T22:45:19.968Z,94.60
2018-04-14T22:47:47.504Z,94.60
2018-04-14T22:50:15.080Z,94.60
2018-04-14T22:52:42.553Z,94.80
2018-04-14T22:55:10.810Z,95.40
2018-04-14T22:57:38.376Z,95.10
2018-04-14T23:00:06.623Z,95.20
2018-04-14T23:02:34.100Z,95.20
2018-04-14T23:05:01.571Z,95.30
2018-04-14T23:07:29.836Z,95.40
2018-04-14T23:09:57.319Z,95.30
2018-04-14T23:12:25.555Z,95.30
2018-04-14T23:14:53.128Z,95.20
2018-04-14T23:17:20.783Z,95.30
2018-04-14T23:19:48.263Z,95.40
2018-04-14T23:22:16.499Z,95.60
2018-04-14T23:24:43.971Z,95.60
2018-04-14T23:27:11.436Z,95.80
2018-04-14T23:29:38.914Z,95.80
2018-04-14T23:32:07.161Z,95.70
2018-04-14T23:34:34.630Z,95.70
2018-04-14T23:37:02.870Z,96.10
2018-04-14T23:39:30.358Z,95.70
2018-04-14T23:41:57.832Z,95.90
2018-04-14T23:44:26.083Z,95.90
2018-04-14T23:46:53.562Z,95.90
2018-04-14T23:49:21.872Z,95.90
2018-04-14T23:51:49.342Z,95.80
2018-04-14T23:54:16.806Z,95.80
2018-04-14T23:56:44.266Z,95.70
2018-04-14T23:59:11.732Z,96.00
